createdAt,value
2023-01-29T00:01:57.134Z,-1.39
2023-01-29T00:04:24.273Z,-1.61
2023-01-29T00:06:50.965Z,-1.29
2023-01-29T00:09:18.479Z,-1.83
2023-01-29T00:11:45.221Z,-1.24
2023-01-29T00:14:12.014Z,-1.28
2023-01-29T00:16:38.704Z,-1.22
2023-01-29T00:19:05.463Z,-1.32
2023-01-29T00:21:32.444Z,-1.76
2023-01-29T00:24:00.113Z,-1.63
2023-01-29T00:26:26.766Z,-1.46
2023-01-29T00:28:53.888Z,-1.38
2023-01-29T00:31:23.637Z,-1.19
2023-01-29T00:33:50.594Z,-1.23
2023-01-29T00:36:19.063Z,-1.20
2023-01-29T00:38:54.454Z,-1.14
2023-01-29T00:41:41.506Z,-1.21
2023-01-29T00:44:28.745Z,-1.95
2023-01-29T00:46:55.408Z,-1.85
2023-01-29T00:49:22.133Z,-1.68
2023-01-29T00:52:08.985Z,-2.25
2023-01-29T00:54:36.329Z,-1.86
2023-01-29T00:57:04.346Z,-1.69
2023-01-29T00:59:31.821Z,-1.54
2023-01-29T01:02:16.978Z,-1.36
2023-01-29T01:04:43.527Z,-1.57
2023-01-29T01:09:55.097Z,-1.72
2023-01-29T01:12:22.112Z,-1.63
2023-01-29T01:14:49.060Z,-1.45
2023-01-29T01:17:15.780Z,-1.71
2023-01-29T01:19:42.941Z,-1.07
2023-01-29T01:22:09.613Z,-1.23
2023-01-29T01:24:36.275Z,-1.53
2023-01-29T01:27:03.092Z,-0.98
2023-01-29T01:29:29.752Z,-1.27
2023-01-29T01:31:56.471Z,-0.93
2023-01-29T01:34:23.877Z,-0.86
2023-01-29T01:36:50.435Z,-0.76
2023-01-29T01:39:16.959Z,-0.92
2023-01-29T01:41:43.536Z,-0.49
2023-01-29T01:44:47.806Z,-0.24
2023-01-29T01:47:15.976Z,-0.79
2023-01-29T01:49:44.050Z,-0.89
2023-01-29T01:52:13.558Z,-0.42
2023-01-29T01:54:40.923Z,-0.75
2023-01-29T01:57:16.145Z,-0.18
2023-01-29T01:59:50.346Z,-0.15
2023-01-29T02:02:36.201Z,-0.20
2023-01-29T02:05:21.452Z,-0.29
2023-01-29T02:08:08.961Z,-0.56
2023-01-29T02:10:41.468Z,-0.50
2023-01-29T02:13:08.281Z,0.09
2023-01-29T02:15:34.867Z,-0.04
2023-01-29T02:18:02.248Z,-0.60
2023-01-29T02:20:32.013Z,0.01
2023-01-29T02:23:38.612Z,0.19
2023-01-29T02:26:50.381Z,0.12
2023-01-29T02:29:30.462Z,0.30
2023-01-29T02:32:36.924Z,0.45
2023-01-29T02:35:29.728Z,0.21
2023-01-29T02:38:15.693Z,0.54
2023-01-29T02:40:48.291Z,0.58
2023-01-29T02:43:20.959Z,0.61
2023-01-29T02:45:54.034Z,0.61
2023-01-29T02:48:24.549Z,0.43
2023-01-29T02:51:00.440Z,-0.01
2023-01-29T02:53:38.179Z,0.46
2023-01-29T02:56:15.301Z,0.51
2023-01-29T02:58:46.011Z,0.12
2023-01-29T03:01:19.015Z,0.23
2023-01-29T03:03:55.804Z,-0.01
2023-01-29T03:06:53.159Z,0.76
2023-01-29T03:09:34.145Z,0.68
2023-01-29T03:12:19.813Z,0.20
2023-01-29T03:15:16.870Z,0.11
2023-01-29T03:18:00.382Z,0.70
2023-01-29T03:20:32.821Z,0.81
2023-01-29T03:23:07.755Z,0.18
2023-01-29T03:25:58.922Z,0.39
2023-01-29T03:28:48.867Z,0.68
2023-01-29T03:31:37.196Z,0.71
2023-01-29T03:34:16.363Z,0.73
2023-01-29T03:36:55.758Z,0.39
2023-01-29T03:39:24.378Z,0.51
2023-01-29T03:42:00.681Z,0.31
2023-01-29T03:44:42.434Z,0.86
2023-01-29T03:47:30.991Z,0.92
2023-01-29T03:50:38.863Z,0.91
2023-01-29T03:53:43.976Z,0.93
2023-01-29T03:56:32.696Z,0.27
2023-01-29T03:59:11.861Z,0.75
2023-01-29T04:02:08.626Z,0.44
2023-01-29T04:04:37.854Z,0.32
2023-01-29T04:07:23.693Z,0.93
2023-01-29T04:10:07.169Z,0.67
2023-01-29T04:12:55.106Z,0.87
2023-01-29T04:15:25.659Z,0.88
2023-01-29T04:17:53.282Z,0.55
2023-01-29T04:20:27.364Z,0.38
2023-01-29T04:22:54.707Z,0.70
2023-01-29T04:25:28.849Z,0.89
2023-01-29T04:28:23.288Z,0.64
2023-01-29T04:30:55.707Z,0.70
2023-01-29T04:33:44.452Z,0.87
2023-01-29T04:36:46.258Z,0.89
2023-01-29T04:39:23.995Z,0.71
2023-01-29T04:42:04.886Z,0.85
2023-01-29T04:44:49.860Z,0.97
2023-01-29T04:47:37.163Z,1.01
2023-01-29T04:50:14.922Z,0.85
2023-01-29T04:53:03.299Z,1.01
2023-01-29T04:55:56.805Z,1.04
2023-01-29T04:58:41.382Z,0.53
2023-01-29T05:01:13.035Z,0.92
2023-01-29T05:03:42.838Z,1.02
2023-01-29T05:06:11.638Z,0.92
2023-01-29T05:08:39.679Z,0.63
2023-01-29T05:11:06.920Z,0.92
2023-01-29T05:13:39.431Z,1.11
2023-01-29T05:16:09.770Z,1.13
2023-01-29T05:18:36.567Z,0.77
2023-01-29T05:21:07.446Z,0.57
2023-01-29T05:23:34.313Z,0.64
2023-01-29T05:26:01.109Z,1.00
2023-01-29T05:28:27.705Z,0.92
2023-01-29T05:30:56.775Z,0.32
2023-01-29T05:33:28.041Z,1.26
2023-01-29T05:35:56.028Z,1.26
2023-01-29T05:38:23.201Z,1.15
2023-01-29T05:40:49.853Z,1.28
2023-01-29T05:43:19.084Z,1.25
2023-01-29T05:45:59.666Z,0.89
2023-01-29T05:48:32.308Z,1.22
2023-01-29T05:51:03.664Z,1.30
2023-01-29T05:53:31.312Z,0.93
2023-01-29T05:56:01.383Z,1.04
2023-01-29T05:58:28.196Z,0.77
2023-01-29T06:00:54.722Z,0.97
2023-01-29T06:03:21.209Z,1.28
2023-01-29T06:05:47.807Z,1.45
2023-01-29T06:08:14.395Z,1.19
2023-01-29T06:10:41.001Z,1.49
2023-01-29T06:13:07.926Z,1.51
2023-01-29T06:15:34.568Z,1.44
2023-01-29T06:18:01.092Z,1.50
2023-01-29T06:20:27.756Z,1.45
2023-01-29T06:22:54.400Z,1.31
2023-01-29T06:25:21.064Z,1.44
2023-01-29T06:27:51.085Z,1.32
2023-01-29T06:30:18.002Z,1.25
2023-01-29T06:32:44.765Z,0.89
2023-01-29T06:35:11.329Z,0.96
2023-01-29T06:37:38.329Z,1.05
2023-01-29T06:40:05.435Z,1.29
2023-01-29T06:42:32.078Z,0.65
2023-01-29T06:44:58.568Z,0.91
2023-01-29T06:47:27.125Z,1.55
2023-01-29T06:49:53.704Z,1.51
2023-01-29T06:52:20.204Z,1.56
2023-01-29T06:54:47.465Z,1.35
2023-01-29T06:57:14.064Z,1.41
2023-01-29T06:59:40.668Z,1.41
2023-01-29T07:02:07.278Z,1.02
2023-01-29T07:04:35.492Z,1.05
2023-01-29T07:07:02.105Z,1.29
2023-01-29T07:09:28.681Z,1.00
2023-01-29T07:11:55.283Z,1.62
2023-01-29T07:14:22.071Z,1.36
2023-01-29T07:16:48.680Z,1.60
2023-01-29T07:19:15.305Z,1.02
2023-01-29T07:21:41.941Z,1.42
2023-01-29T07:24:08.808Z,1.55
2023-01-29T07:26:35.433Z,1.10
2023-01-29T07:29:01.949Z,1.02
2023-01-29T07:31:28.657Z,1.55
2023-01-29T07:33:55.874Z,1.53
2023-01-29T07:36:24.050Z,1.44
2023-01-29T07:38:51.341Z,1.66
2023-01-29T07:41:17.943Z,1.61
2023-01-29T07:43:46.096Z,1.66
2023-01-29T07:46:12.766Z,1.57
2023-01-29T07:48:39.406Z,1.23
2023-01-29T07:51:06.550Z,1.64
2023-01-29T07:53:33.368Z,1.21
2023-01-29T07:56:00.188Z,1.73
2023-01-29T07:58:26.718Z,1.60
2023-01-29T08:00:53.281Z,1.81
2023-01-29T08:03:20.744Z,1.53
2023-01-29T08:05:47.448Z,1.24
2023-01-29T08:08:14.917Z,0.63
2023-01-29T08:10:41.769Z,1.44
2023-01-29T08:13:09.065Z,1.77
2023-01-29T08:15:38.011Z,1.89
2023-01-29T08:18:05.866Z,1.90
2023-01-29T08:20:32.467Z,1.92
2023-01-29T08:23:01.163Z,2.01
2023-01-29T08:25:28.584Z,2.00
2023-01-29T08:27:57.487Z,1.96
2023-01-29T08:30:29.660Z,1.84
2023-01-29T08:32:56.350Z,2.11
2023-01-29T08:35:23.503Z,1.62
2023-01-29T08:37:59.363Z,2.14
2023-01-29T08:40:27.825Z,1.81
2023-01-29T08:43:01.509Z,2.22
2023-01-29T08:45:28.999Z,2.38
2023-01-29T08:47:55.529Z,1.92
2023-01-29T08:50:22.168Z,2.23
2023-01-29T08:52:48.653Z,2.54
2023-01-29T08:55:15.559Z,2.03
2023-01-29T08:57:42.245Z,2.18
2023-01-29T09:00:10.170Z,2.77
2023-01-29T09:02:37.690Z,2.36
2023-01-29T09:05:05.585Z,2.73
2023-01-29T09:07:32.164Z,2.72
2023-01-29T09:09:58.753Z,2.38
2023-01-29T09:12:25.893Z,2.71
2023-01-29T09:14:52.574Z,2.50
2023-01-29T09:17:19.358Z,3.03
2023-01-29T09:19:46.025Z,2.91
2023-01-29T09:22:15.621Z,2.96
2023-01-29T09:24:42.254Z,3.15
2023-01-29T09:27:10.001Z,3.14
2023-01-29T09:29:37.117Z,3.11
2023-01-29T09:32:04.623Z,3.31
2023-01-29T09:34:31.279Z,3.00
2023-01-29T09:36:57.922Z,3.31
2023-01-29T09:39:24.509Z,3.00
2023-01-29T09:42:03.165Z,3.50
2023-01-29T09:44:38.913Z,3.53
2023-01-29T09:47:13.201Z,3.35
2023-01-29T09:50:01.503Z,3.45
2023-01-29T09:52:30.173Z,3.58
2023-01-29T09:55:28.508Z,3.63
2023-01-29T09:57:58.421Z,3.18
2023-01-29T10:00:37.449Z,3.15
2023-01-29T10:03:31.737Z,3.68
2023-01-29T10:06:34.948Z,3.76
2023-01-29T10:09:33.509Z,3.77
2023-01-29T10:12:27.372Z,3.88
2023-01-29T10:15:45.208Z,3.84
2023-01-29T10:18:35.783Z,3.69
2023-01-29T10:21:19.579Z,3.55
2023-01-29T10:23:50.873Z,3.73
2023-01-29T10:26:21.188Z,3.62
2023-01-29T10:28:50.825Z,3.35
2023-01-29T10:31:24.955Z,3.87
2023-01-29T10:34:03.466Z,3.42
2023-01-29T10:36:45.727Z,3.61
2023-01-29T10:39:18.367Z,3.96
2023-01-29T10:42:01.583Z,3.59
2023-01-29T10:44:39.508Z,4.18
2023-01-29T10:47:30.236Z,4.08
2023-01-29T10:50:21.356Z,4.05
2023-01-29T10:52:55.122Z,4.09
2023-01-29T10:55:46.565Z,4.10
2023-01-29T10:58:37.510Z,3.99
2023-01-29T11:01:04.516Z,3.92
2023-01-29T11:03:33.295Z,4.17
2023-01-29T11:06:19.543Z,4.08
2023-01-29T11:09:23.111Z,4.33
2023-01-29T11:11:54.497Z,3.86
2023-01-29T11:14:26.625Z,4.19
2023-01-29T11:16:53.365Z,3.95
2023-01-29T11:19:37.219Z,4.23
2023-01-29T11:22:04.430Z,3.92
2023-01-29T11:24:31.079Z,4.32
2023-01-29T11:26:59.672Z,4.10
2023-01-29T11:29:43.113Z,4.57
2023-01-29T11:32:21.786Z,4.17
2023-01-29T11:34:58.675Z,4.71
2023-01-29T11:37:32.420Z,4.77
2023-01-29T11:39:59.234Z,4.34
2023-01-29T11:42:34.760Z,4.87
2023-01-29T11:45:01.330Z,4.30
2023-01-29T11:47:30.240Z,4.62
2023-01-29T11:50:03.114Z,4.49
2023-01-29T11:52:42.054Z,5.03
2023-01-29T11:55:18.697Z,4.90
2023-01-29T11:57:52.125Z,4.64
2023-01-29T12:00:28.289Z,4.48
2023-01-29T12:02:57.809Z,4.37
2023-01-29T12:05:26.483Z,4.96
2023-01-29T12:07:56.612Z,5.01
2023-01-29T12:10:35.601Z,4.96
2023-01-29T12:13:11.116Z,4.73
2023-01-29T12:15:42.642Z,4.38
2023-01-29T12:18:14.449Z,4.42
2023-01-29T12:20:47.792Z,4.32
2023-01-29T12:23:33.549Z,4.97
2023-01-29T12:26:12.807Z,4.25
2023-01-29T12:28:43.856Z,4.92
2023-01-29T12:31:33.109Z,4.62
2023-01-29T12:34:56.349Z,4.92
2023-01-29T12:37:31.761Z,4.95
2023-01-29T12:39:58.396Z,4.64
2023-01-29T12:42:25.468Z,4.39
2023-01-29T12:44:57.553Z,4.79
2023-01-29T12:47:31.069Z,4.31
2023-01-29T12:50:03.538Z,4.91
2023-01-29T12:53:07.308Z,4.87
2023-01-29T12:55:45.121Z,4.22
2023-01-29T12:58:28.622Z,4.77
2023-01-29T13:01:00.889Z,4.70
2023-01-29T13:03:37.460Z,4.71
2023-01-29T13:06:10.701Z,4.23
2023-01-29T13:08:44.950Z,4.47
2023-01-29T13:11:19.670Z,4.21
2023-01-29T13:13:54.606Z,4.09
2023-01-29T13:16:33.348Z,4.69
2023-01-29T13:19:23.999Z,4.14
2023-01-29T13:21:53.511Z,4.33
2023-01-29T13:24:23.476Z,4.77
2023-01-29T13:26:50.862Z,4.34
2023-01-29T13:29:23.706Z,4.92
2023-01-29T13:31:53.566Z,4.61
2023-01-29T13:34:22.873Z,4.95
2023-01-29T13:36:56.106Z,4.40
2023-01-29T13:39:25.026Z,4.94
2023-01-29T13:41:52.955Z,4.98
2023-01-29T13:44:42.242Z,4.71
2023-01-29T13:47:11.854Z,4.49
2023-01-29T13:49:41.850Z,4.70
2023-01-29T13:52:27.548Z,4.70
2023-01-29T13:54:58.642Z,4.92
2023-01-29T13:57:40.361Z,4.94
2023-01-29T14:00:32.962Z,4.91
2023-01-29T14:03:04.622Z,4.93
2023-01-29T14:05:31.185Z,4.91
2023-01-29T14:08:02.081Z,4.19
2023-01-29T14:10:30.638Z,4.41
2023-01-29T14:13:03.220Z,4.94
2023-01-29T14:15:34.043Z,4.90
2023-01-29T14:18:22.063Z,4.76
2023-01-29T14:20:48.492Z,4.85
2023-01-29T14:23:33.171Z,4.30
2023-01-29T14:26:02.509Z,4.84
2023-01-29T14:28:30.937Z,4.43
2023-01-29T14:30:58.226Z,4.61
2023-01-29T14:33:37.458Z,4.53
2023-01-29T14:36:12.554Z,4.97
2023-01-29T14:38:46.416Z,4.94
2023-01-29T14:41:33.998Z,4.41
2023-01-29T14:44:38.021Z,5.08
2023-01-29T14:47:04.881Z,5.06
2023-01-29T14:49:50.215Z,5.08
2023-01-29T14:52:20.552Z,4.78
2023-01-29T14:54:48.629Z,4.99
2023-01-29T14:57:17.862Z,4.71
2023-01-29T14:59:49.139Z,4.97
2023-01-29T15:02:22.854Z,4.37
2023-01-29T15:04:53.881Z,4.96
2023-01-29T15:07:30.156Z,4.37
2023-01-29T15:10:22.237Z,4.54
2023-01-29T15:12:58.128Z,4.48
2023-01-29T15:15:56.984Z,4.94
2023-01-29T15:18:43.209Z,4.57
2023-01-29T15:21:15.623Z,4.53
2023-01-29T15:23:44.135Z,4.80
2023-01-29T15:26:19.052Z,4.29
2023-01-29T15:29:02.127Z,4.61
2023-01-29T15:31:31.243Z,4.84
2023-01-29T15:34:06.612Z,4.75
2023-01-29T15:36:33.566Z,4.34
2023-01-29T15:39:28.282Z,4.83
2023-01-29T15:42:12.671Z,4.62
2023-01-29T15:44:45.566Z,4.62
2023-01-29T15:47:13.534Z,4.51
2023-01-29T15:49:41.295Z,4.60
2023-01-29T15:52:15.919Z,4.65
2023-01-29T15:54:44.043Z,4.53
2023-01-29T15:57:21.531Z,4.47
2023-01-29T15:59:51.742Z,4.04
2023-01-29T16:02:39.646Z,4.61
2023-01-29T16:05:30.610Z,4.51
2023-01-29T16:07:57.716Z,4.44
2023-01-29T16:10:29.984Z,4.55
2023-01-29T16:12:57.869Z,4.32
2023-01-29T16:15:33.923Z,4.22
2023-01-29T16:18:03.232Z,4.34
2023-01-29T16:20:46.731Z,4.45
2023-01-29T16:23:19.923Z,4.24
2023-01-29T16:25:48.848Z,3.91
2023-01-29T16:28:16.351Z,4.24
2023-01-29T16:30:43.033Z,4.42
2023-01-29T16:33:14.638Z,3.88
2023-01-29T16:35:41.887Z,3.89
2023-01-29T16:38:32.501Z,4.52
2023-01-29T16:41:14.232Z,3.82
2023-01-29T16:43:43.575Z,4.46
2023-01-29T16:46:44.716Z,4.46
2023-01-29T16:49:26.804Z,4.46
2023-01-29T16:51:56.263Z,4.27
2023-01-29T16:54:27.551Z,4.28
2023-01-29T16:56:58.965Z,4.46
2023-01-29T16:59:34.082Z,4.19
2023-01-29T17:02:01.060Z,3.90
2023-01-29T17:04:28.042Z,4.24
2023-01-29T17:06:58.693Z,4.45
2023-01-29T17:09:34.807Z,3.87
2023-01-29T17:12:05.538Z,3.77
2023-01-29T17:14:33.281Z,4.11
2023-01-29T17:17:14.335Z,3.74
2023-01-29T17:19:40.920Z,4.00
2023-01-29T17:22:14.804Z,4.31
2023-01-29T17:24:42.116Z,4.03
2023-01-29T17:27:18.761Z,4.29
2023-01-29T17:29:45.562Z,4.36
2023-01-29T17:32:12.640Z,4.13
2023-01-29T17:34:39.527Z,4.12
2023-01-29T17:37:06.053Z,3.47
2023-01-29T17:39:32.707Z,3.49
2023-01-29T17:41:59.355Z,3.90
2023-01-29T17:44:26.145Z,3.53
2023-01-29T17:46:52.828Z,3.93
2023-01-29T17:49:27.728Z,3.38
2023-01-29T17:51:56.049Z,4.16
2023-01-29T17:54:23.126Z,3.55
2023-01-29T17:56:50.493Z,3.78
2023-01-29T17:59:22.195Z,4.19
2023-01-29T18:01:50.073Z,3.62
2023-01-29T18:04:17.784Z,3.88
2023-01-29T18:06:47.500Z,4.19
2023-01-29T18:09:15.640Z,3.52
2023-01-29T18:11:43.101Z,3.76
2023-01-29T18:14:14.498Z,4.24
2023-01-29T18:16:42.930Z,4.32
2023-01-29T18:19:16.258Z,4.14
2023-01-29T18:21:42.839Z,3.92
2023-01-29T18:24:09.462Z,4.36
2023-01-29T18:26:36.461Z,3.82
2023-01-29T18:29:04.359Z,3.87
2023-01-29T18:31:31.697Z,4.15
2023-01-29T18:33:58.386Z,4.14
2023-01-29T18:36:25.097Z,4.31
2023-01-29T18:38:51.775Z,3.82
2023-01-29T18:41:18.612Z,4.34
2023-01-29T18:43:45.241Z,3.84
2023-01-29T18:46:11.944Z,3.88
2023-01-29T18:48:39.916Z,4.45
2023-01-29T18:51:07.545Z,3.84
2023-01-29T18:53:34.149Z,4.33
2023-01-29T18:56:04.300Z,3.71
2023-01-29T18:58:34.424Z,4.44
2023-01-29T19:01:01.958Z,4.38
2023-01-29T19:03:28.671Z,3.88
2023-01-29T19:06:01.119Z,4.43
2023-01-29T19:08:27.977Z,4.43
2023-01-29T19:10:54.793Z,3.69
2023-01-29T19:13:21.580Z,4.37
2023-01-29T19:15:49.043Z,4.33
2023-01-29T19:18:15.763Z,4.03
2023-01-29T19:20:42.428Z,4.45
2023-01-29T19:23:09.546Z,4.24
2023-01-29T19:25:38.678Z,4.00
2023-01-29T19:28:06.986Z,3.83
2023-01-29T19:30:33.697Z,4.31
2023-01-29T19:33:00.281Z,3.94
2023-01-29T19:35:27.001Z,4.39
2023-01-29T19:37:53.515Z,4.33
2023-01-29T19:40:20.982Z,4.30
2023-01-29T19:42:48.472Z,4.11
2023-01-29T19:45:15.359Z,4.28
2023-01-29T19:47:43.403Z,4.21
2023-01-29T19:50:11.205Z,4.46
2023-01-29T19:52:50.649Z,3.84
2023-01-29T19:55:18.880Z,3.68
2023-01-29T19:57:46.256Z,4.18
2023-01-29T20:00:17.256Z,4.46
2023-01-29T20:02:43.912Z,4.21
2023-01-29T20:05:12.624Z,3.83
2023-01-29T20:07:41.077Z,3.87
2023-01-29T20:10:11.336Z,4.43
2023-01-29T20:12:38.356Z,3.81
2023-01-29T20:15:05.345Z,4.43
2023-01-29T20:17:32.137Z,3.79
2023-01-29T20:19:58.662Z,4.42
2023-01-29T20:22:26.499Z,4.34
2023-01-29T20:24:53.167Z,4.47
2023-01-29T20:27:19.738Z,4.32
2023-01-29T20:29:46.593Z,3.96
2023-01-29T20:32:14.461Z,4.45
2023-01-29T20:34:41.325Z,3.84
2023-01-29T20:37:07.841Z,4.33
2023-01-29T20:39:34.377Z,3.54
2023-01-29T20:42:00.919Z,4.38
2023-01-29T20:44:27.495Z,4.40
2023-01-29T20:46:54.135Z,4.58
2023-01-29T20:49:21.711Z,4.41
2023-01-29T20:51:48.568Z,4.40
2023-01-29T20:54:15.155Z,4.10
2023-01-29T20:56:42.859Z,4.49
2023-01-29T20:59:10.375Z,4.65
2023-01-29T21:01:37.067Z,4.66
2023-01-29T21:04:03.758Z,4.14
2023-01-29T21:06:30.462Z,4.48
2023-01-29T21:08:57.114Z,4.68
2023-01-29T21:11:23.862Z,4.18
2023-01-29T21:13:53.158Z,4.63
2023-01-29T21:16:19.876Z,4.16
2023-01-29T21:18:46.556Z,4.56
2023-01-29T21:21:13.229Z,4.68
2023-01-29T21:23:39.819Z,4.18
2023-01-29T21:26:07.138Z,4.87
2023-01-29T21:28:33.862Z,4.37
2023-01-29T21:31:10.079Z,4.85
2023-01-29T21:33:37.563Z,4.79
2023-01-29T21:36:04.578Z,4.35
2023-01-29T21:38:31.157Z,4.29
2023-01-29T21:41:02.715Z,4.41
2023-01-29T21:43:29.306Z,4.93
2023-01-29T21:45:57.466Z,4.97
2023-01-29T21:48:24.621Z,4.88
2023-01-29T21:50:52.354Z,5.01
2023-01-29T21:53:19.168Z,4.46
2023-01-29T21:55:46.374Z,4.28
2023-01-29T21:58:14.523Z,4.43
2023-01-29T22:00:41.250Z,5.05
2023-01-29T22:03:07.886Z,4.39
2023-01-29T22:05:34.770Z,4.85
2023-01-29T22:08:01.505Z,4.95
2023-01-29T22:10:28.855Z,5.09
2023-01-29T22:12:55.682Z,4.77
2023-01-29T22:15:23.909Z,5.14
2023-01-29T22:17:51.106Z,5.03
2023-01-29T22:20:18.857Z,4.70
2023-01-29T22:22:45.738Z,5.22
2023-01-29T22:25:12.627Z,4.71
2023-01-29T22:27:39.155Z,4.64
2023-01-29T22:30:06.562Z,5.17
2023-01-29T22:32:33.345Z,5.27
2023-01-29T22:34:59.945Z,5.11
2023-01-29T22:37:26.563Z,5.05
2023-01-29T22:39:53.076Z,4.72
2023-01-29T22:42:20.572Z,5.14
2023-01-29T22:44:48.101Z,5.04
2023-01-29T22:47:14.926Z,5.13
2023-01-29T22:49:42.346Z,5.23
2023-01-29T22:52:11.902Z,4.96
2023-01-29T22:54:40.399Z,5.31
2023-01-29T22:57:10.055Z,5.32
2023-01-29T22:59:37.318Z,5.25
2023-01-29T23:02:04.499Z,4.77
2023-01-29T23:04:31.272Z,5.20
2023-01-29T23:06:57.831Z,4.78
2023-01-29T23:09:24.413Z,5.36
2023-01-29T23:11:51.065Z,4.74
2023-01-29T23:14:17.959Z,5.22
2023-01-29T23:16:44.554Z,4.80
2023-01-29T23:19:12.140Z,5.20
2023-01-29T23:21:39.572Z,5.43
2023-01-29T23:24:07.440Z,5.48
2023-01-29T23:26:52.930Z,5.26
2023-01-29T23:29:19.533Z,5.44
2023-01-29T23:31:46.221Z,5.28
2023-01-29T23:34:13.758Z,5.51
2023-01-29T23:36:40.464Z,4.93
2023-01-29T23:39:07.747Z,5.38
2023-01-29T23:41:34.462Z,5.60
2023-01-29T23:44:01.132Z,5.46
2023-01-29T23:46:27.814Z,5.47
2023-01-29T23:48:54.384Z,5.09
2023-01-29T23:51:21.069Z,5.69
2023-01-29T23:53:47.623Z,5.57
2023-01-29T23:56:14.168Z,5.03
2023-01-29T23:58:40.752Z,5.64
